Time;durP1;ratioP1;P1;durP2;ratioP2;P2;SDS_P1;SDS_P2;PMS_P1;PMS_P2;Temp;Humidity;BMP_temperature;BMP_pressure;BME280_temperature;BME280_humidity;BME280_pressure;Samples;Min_cycle;Max_cycle;Signal;HPM_P1;HPM_P2
2022/02/07 00:01:00;;;;;;;;;;;;;;;-144.99;100.00;52666.19;5029567;28;19965;-71
2022/02/07 00:03:38;;;;;;;;;;;;;;;-144.99;100.00;52684.53;5028684;28;19994;-70
2022/02/07 00:06:05;;;;;;;;;;;;;;;-144.99;100.00;52656.00;5027530;28;20429;-71
2022/02/07 00:08:33;;;;;;;;;;;;;;;-144.99;100.00;52668.22;5026583;28;19925;-70
2022/02/07 00:11:00;;;;;;;;;;;;;;;-144.99;100.00;52676.38;5025398;28;19940;-69
2022/02/07 00:13:26;;;;;;;;;;;;;;;-144.99;100.00;52711.03;5028591;28;19925;-71
2022/02/07 00:15:53;;;;;;;;;;;;;;;-144.99;100.00;52645.81;5028862;28;19964;-71
2022/02/07 00:18:22;;;;;;;;;;;;;;;-144.99;100.00;52692.69;5029582;28;19955;-70
2022/02/07 00:20:48;;;;;;;;;;;;;;;-144.99;100.00;52684.53;5029151;28;19946;-71
2022/02/07 00:23:15;;;;;;;;;;;;;;;-144.99;99.26;52688.63;5029079;28;19992;-72
2022/02/07 00:25:41;;;;;;;;;;;;;;;-144.99;98.03;52692.69;5029563;28;19964;-72
2022/02/07 00:28:08;;;;;;;;;;;;;;;-144.99;98.04;52688.63;5029789;28;19952;-71
2022/02/07 00:30:34;;;;;;;;;;;;;;;-144.99;97.78;52651.94;5029049;28;19954;-70
2022/02/07 00:33:01;;;;;;;;;;;;;;;-144.99;96.98;52664.16;5029325;28;19970;-71
2022/02/07 00:35:28;;;;;;;;;;;;;;;-144.99;97.13;52651.94;5028828;28;20008;-72
2022/02/07 00:38:01;;;;;;;;;;;;;;;-144.99;97.22;52664.16;5028541;28;19933;-71
2022/02/07 00:41:00;;;;;;;;;;;;;;;-144.99;97.90;52635.63;5020386;28;19930;-70
2022/02/07 00:43:33;;;;;;;;;;;;;;;-144.99;98.76;52639.69;5019479;28;19963;-70
2022/02/07 00:46:06;;;;;;;;;;;;;;;-144.99;99.91;52668.22;5030406;28;19925;-71
2022/02/07 00:48:32;;;;;;;;;;;;;;;-144.99;98.42;52645.81;5030282;28;19988;-71
2022/02/07 00:51:00;;;;;;;;;;;;;;;-144.99;98.75;52664.16;5028936;28;19943;-70
2022/02/07 00:53:27;;;;;;;;;;;;;;;-144.99;99.02;52635.63;5029129;28;19949;-70
2022/02/07 00:55:54;;;;;;;;;;;;;;;-144.99;98.74;52660.09;5027794;28;20162;-69
2022/02/07 00:58:20;;;;;;;;;;;;;;;-144.99;99.43;52647.84;5028442;28;20462;-70
2022/02/07 01:00:47;;;;;;;;;;;;;;;-144.99;100.00;52698.81;5026989;28;19996;-71
2022/02/07 01:03:13;;;;;;;;;;;;;;;-144.99;100.00;52653.97;5027492;28;20020;-70
2022/02/07 01:05:40;;;;;;;;;;;;;;;-144.99;100.00;52656.00;5028206;28;19990;-71
2022/02/07 01:08:09;;;;;;;;;;;;;;;-144.99;100.00;52674.34;5028912;28;19925;-72
2022/02/07 01:10:43;;;;;;;;;;;;;;;-144.99;100.00;52692.69;5020441;28;19939;-71
2022/02/07 01:13:17;;;;;;;;;;;;;;;-144.99;100.00;52694.72;5025187;28;19954;-72
2022/02/07 01:15:53;;;;;;;;;;;;;;;-144.99;100.00;52713.09;5014331;28;19956;-71
2022/02/07 01:49:01;;;;;;;;;;;;;;;-144.99;100.00;52647.84;4991885;28;19929;-69
2022/02/07 01:51:53;;;;;;;;;;;;;;;-144.99;100.00;52668.22;5013577;28;19951;-72
2022/02/07 01:54:27;;;;;;;;;;;;;;;-144.99;100.00;52692.69;5018963;28;19929;-70
2022/02/07 01:56:55;;;;;;;;;;;;;;;-144.99;100.00;52651.94;5019592;28;19976;-70
2022/02/07 01:59:22;;;;;;;;;;;;;;;-144.99;100.00;52688.63;5022822;28;19974;-71
2022/02/07 02:01:48;;;;;;;;;;;;;;;-144.99;100.00;52680.47;5021390;28;19929;-70
2022/02/07 02:04:15;;;;;;;;;;;;;;;-144.99;100.00;52664.16;5019732;28;19967;-69
2022/02/07 02:06:41;;;;;;;;;;;;;;;-144.99;100.00;52639.69;5019435;28;19948;-70
2022/02/07 02:09:07;;;;;;;;;;;;;;;-144.99;100.00;52668.22;5019602;28;20297;-70
2022/02/07 02:11:37;;;;;;;;;;;;;;;-144.99;100.00;52680.47;5016988;28;19925;-71
2022/02/07 02:14:20;;;;;;;;;;;;;;;-144.99;100.00;52674.34;5017952;28;19999;-70
2022/02/07 02:17:02;;;;;;;;;;;;;;;-144.99;100.00;52627.47;5016854;28;19925;-70
2022/02/07 02:20:00;;;;;;;;;;;;;;;-144.99;100.00;52690.66;5016748;28;19947;-72
2022/02/07 02:36:27;;;;;;;;;;;;;;;-144.99;100.00;52664.16;5012841;28;19962;-67
2022/02/07 02:45:24;;;;;;;;;;;;;;;-144.99;100.00;52676.38;5004496;28;20054;-68
2022/02/07 02:47:17;;;;;;;;;;;;;;;-144.99;100.00;52656.00;5013839;28;20401;-67
2022/02/07 02:49:48;;;;;;;;;;;;;;;-144.99;100.00;52696.78;5013277;28;20009;-68
2022/02/07 02:52:14;;;;;;;;;;;;;;;-144.99;100.00;52672.31;5013200;28;20430;-67
2022/02/07 02:54:42;;;;;;;;;;;;;;;-144.99;100.00;52656.00;5013270;28;19925;-67
2022/02/07 02:57:08;;;;;;;;;;;;;;;-144.99;100.00;52629.50;5013707;28;20012;-67
2022/02/07 02:59:35;;;;;;;;;;;;;;;-144.99;100.00;52672.31;5013650;28;19930;-67
2022/02/07 03:02:02;;;;;;;;;;;;;;;-144.99;100.00;52623.38;5014029;28;19951;-67
2022/02/07 03:04:28;;;;;;;;;;;;;;;-144.99;100.00;52635.63;5012925;28;20441;-67
2022/02/07 03:06:54;;;;;;;;;;;;;;;-144.99;100.00;52664.16;5013150;28;19984;-68
2022/02/07 03:09:21;;;;;;;;;;;;;;;-144.99;100.00;52694.72;5013181;28;20004;-67
2022/02/07 03:11:50;;;;;;;;;;;;;;;-144.99;100.00;52684.53;5010656;28;19925;-67
2022/02/07 03:14:22;;;;;;;;;;;;;;;-144.99;100.00;52656.00;5007957;28;19978;-67
2022/02/07 03:16:48;;;;;;;;;;;;;;;-144.99;100.00;52684.53;5013463;28;19950;-67
2022/02/07 03:19:15;;;;;;;;;;;;;;;-144.99;100.00;52664.16;5013540;28;19949;-67
2022/02/07 03:21:42;;;;;;;;;;;;;;;-144.99;100.00;52694.72;5012347;28;20018;-67
2022/02/07 03:24:09;;;;;;;;;;;;;;;-144.99;100.00;52658.03;5012569;28;19925;-67
2022/02/07 03:26:37;;;;;;;;;;;;;;;-144.99;100.00;52666.19;5013688;28;20418;-67
2022/02/07 03:29:04;;;;;;;;;;;;;;;-144.99;100.00;52660.09;5012581;28;19959;-67
2022/02/07 03:31:31;;;;;;;;;;;;;;;-144.99;100.00;52684.53;5012759;28;20065;-67
2022/02/07 03:33:57;;;;;;;;;;;;;;;-144.99;100.00;52656.00;5012926;28;20060;-67
2022/02/07 03:36:28;;;;;;;;;;;;;;;-144.99;100.00;52664.16;5012916;28;19963;-67
2022/02/07 03:38:54;;;;;;;;;;;;;;;-144.99;100.00;52684.53;5013104;28;19968;-67
2022/02/07 03:41:21;;;;;;;;;;;;;;;-144.99;100.00;52656.00;5012881;28;20016;-67
2022/02/07 03:43:47;;;;;;;;;;;;;;;-144.99;100.00;52692.69;5012496;28;20019;-67
2022/02/07 03:46:15;;;;;;;;;;;;;;;-144.99;100.00;52696.78;5012021;28;19998;-67
2022/02/07 03:48:42;;;;;;;;;;;;;;;-144.99;100.00;52653.97;5010767;28;19952;-67
2022/02/07 03:51:08;;;;;;;;;;;;;;;-144.99;100.00;52676.38;5010600;28;19983;-67
2022/02/07 03:53:35;;;;;;;;;;;;;;;-144.99;100.00;52698.81;5011853;28;20480;-67
2022/02/07 03:56:01;;;;;;;;;;;;;;;-144.99;100.00;52623.38;5015663;28;19949;-67
2022/02/07 03:58:28;;;;;;;;;;;;;;;-144.99;100.00;52645.81;5025784;28;19953;-69
2022/02/07 04:00:55;;;;;;;;;;;;;;;-144.99;100.00;52647.84;5024995;28;20010;-68
2022/02/07 04:03:27;;;;;;;;;;;;;;;-144.99;100.00;52668.22;5018285;28;19930;-67
2022/02/07 04:05:56;;;;;;;;;;;;;;;-144.99;100.00;52688.63;5018582;28;20029;-67
2022/02/07 04:08:28;;;;;;;;;;;;;;;-144.99;100.00;52664.16;5020107;28;19929;-68
2022/02/07 04:11:00;;;;;;;;;;;;;;;-144.99;100.00;52647.84;5002945;28;19973;-68
2022/02/07 04:13:30;;;;;;;;;;;;;;;-144.99;100.00;52662.13;5012516;28;20420;-68
2022/02/07 04:15:57;;;;;;;;;;;;;;;-144.99;100.00;52700.84;5012706;28;19926;-67
2022/02/07 04:18:27;;;;;;;;;;;;;;;-144.99;100.00;52649.88;5012260;28;20032;-67
2022/02/07 04:20:53;;;;;;;;;;;;;;;-144.99;100.00;52674.34;5012086;28;19936;-67
2022/02/07 04:23:20;;;;;;;;;;;;;;;-144.99;100.00;52700.84;5012235;28;20011;-67
2022/02/07 04:25:47;;;;;;;;;;;;;;;-144.99;100.00;52678.44;5011231;28;20327;-67
2022/02/07 04:28:13;;;;;;;;;;;;;;;-144.99;100.00;52660.09;5011886;28;19925;-67
2022/02/07 04:30:40;;;;;;;;;;;;;;;-144.99;100.00;52717.16;5023523;22;19931;-59
2022/02/07 04:33:06;;;;;;;;;;;;;;;-144.99;100.00;52668.22;5010077;28;19952;-60
2022/02/07 04:35:34;;;;;;;;;;;;;;;-144.99;100.00;52717.16;5009645;28;20399;-60
2022/02/07 04:38:00;;;;;;;;;;;;;;;-144.99;100.00;52690.66;5010269;28;20402;-59
2022/02/07 04:40:27;;;;;;;;;;;;;;;-144.99;100.00;52688.63;5010364;28;19944;-59
2022/02/07 04:42:54;;;;;;;;;;;;;;;-144.99;100.00;52645.81;5010535;28;20028;-60
2022/02/07 04:45:33;;;;;;;;;;;;;;;-144.99;100.00;52704.94;5009609;28;19971;-59
2022/02/07 04:48:22;;;;;;;;;;;;;;;-144.99;100.00;52684.53;5011570;28;20403;-60
2022/02/07 04:51:06;;;;;;;;;;;;;;;-144.99;100.00;52668.22;5010429;28;20003;-60
2022/02/07 04:53:51;;;;;;;;;;;;;;;-144.99;100.00;52647.84;5010460;28;19961;-60
2022/02/07 04:57:00;;;;;;;;;;;;;;;-144.99;100.00;52645.81;5010743;28;19970;-60
2022/02/07 04:59:08;;;;;;;;;;;;;;;-144.99;100.00;52694.72;5010079;28;19929;-59
2022/02/07 05:01:44;;;;;;;;;;;;;;;-144.99;100.00;52684.53;5010501;28;19945;-59
2022/02/07 05:04:22;;;;;;;;;;;;;;;-144.99;100.00;52656.00;5011074;28;19960;-59
2022/02/07 05:15:02;;;;;;;;;;;;;;;-144.99;100.00;52660.09;5010172;28;19971;-59
2022/02/07 05:17:31;;;;;;;;;;;;;;;-144.99;100.00;52627.47;5011208;28;19946;-59
2022/02/07 05:19:57;;;;;;;;;;;;;;;-144.99;100.00;52678.44;5011350;28;19967;-59
2022/02/07 05:22:29;;;;;;;;;;;;;;;-144.99;100.00;52696.78;5011438;28;19925;-58
2022/02/07 05:24:56;;;;;;;;;;;;;;;-144.99;100.00;52660.09;5024449;28;19972;-58
2022/02/07 05:27:25;;;;;;;;;;;;;;;-144.99;100.00;52664.16;5011279;28;20012;-59
2022/02/07 05:29:52;;;;;;;;;;;;;;;-144.99;100.00;52647.84;5010511;28;20027;-59
2022/02/07 05:32:18;;;;;;;;;;;;;;;-144.99;100.00;52684.53;5010789;28;19936;-59
2022/02/07 05:34:45;;;;;;;;;;;;;;;-144.99;100.00;52643.78;5009963;28;19947;-58
2022/02/07 05:37:13;;;;;;;;;;;;;;;-144.99;100.00;52637.66;5012658;28;20374;-59
2022/02/07 05:39:43;;;;;;;;;;;;;;;-144.99;100.00;52639.69;5014765;28;19947;-59
2022/02/07 05:42:10;;;;;;;;;;;;;;;-144.99;100.00;52664.16;5015099;28;19995;-59
2022/02/07 05:44:38;;;;;;;;;;;;;;;-144.99;100.00;52660.09;5014603;28;20308;-60
2022/02/07 05:47:05;;;;;;;;;;;;;;;-144.99;100.00;52639.69;5013744;28;19936;-58
2022/02/07 05:49:32;;;;;;;;;;;;;;;-144.99;100.00;52696.78;5014808;28;19968;-59
2022/02/07 05:51:58;;;;;;;;;;;;;;;-144.99;100.00;52627.47;5014025;28;20440;-58
2022/02/07 05:54:25;;;;;;;;;;;;;;;-144.99;100.00;52635.63;5013875;28;20353;-58
2022/02/07 05:56:54;;;;;;;;;;;;;;;-144.99;100.00;52643.78;5014399;28;19971;-58
2022/02/07 05:59:22;;;;;;;;;;;;;;;-144.99;100.00;52698.81;5014374;28;19936;-59
2022/02/07 06:01:49;;;;;;;;;;;;;;;-144.99;100.00;52637.66;5013471;28;19925;-59
2022/02/07 06:04:15;;;;;;;;;;;;;;;-144.99;99.94;52643.78;5013849;28;19988;-58
2022/02/07 06:06:42;;;;;;;;;;;;;;;-144.99;99.22;52680.47;5012997;28;20338;-59
2022/02/07 06:09:08;;;;;;;;;;;;;;;-144.99;98.18;52684.53;5012802;28;20015;-59
2022/02/07 06:11:35;;;;;;;;;;;;;;;-144.99;97.40;52635.63;5012827;28;19929;-60
2022/02/07 06:14:02;;;;;;;;;;;;;;;-144.99;96.93;52688.63;5012600;28;19945;-58
2022/02/07 06:16:32;;;;;;;;;;;;;;;-144.99;96.32;52664.16;5012087;28;20044;-59
2022/02/07 06:18:59;;;;;;;;;;;;;;;-144.99;96.26;52651.94;5013100;28;19979;-58
2022/02/07 06:21:26;;;;;;;;;;;;;;;-144.99;95.66;52670.28;5012575;28;20020;-59
2022/02/07 06:23:55;;;;;;;;;;;;;;;-144.99;95.41;52643.78;5012352;28;19977;-59
2022/02/07 06:26:22;;;;;;;;;;;;;;;-144.99;95.02;52647.84;5012906;28;20345;-59
2022/02/07 06:28:48;;;;;;;;;;;;;;;-144.99;94.63;52653.97;5013244;28;19925;-59
2022/02/07 06:31:16;;;;;;;;;;;;;;;-144.99;94.55;52641.72;5012655;28;20071;-58
2022/02/07 06:33:43;;;;;;;;;;;;;;;-144.99;94.67;52637.66;5012503;28;19925;-59
2022/02/07 06:36:09;;;;;;;;;;;;;;;-144.99;93.94;52603.00;5011337;28;19925;-59
2022/02/07 06:38:36;;;;;;;;;;;;;;;-144.99;94.26;52631.53;5008666;28;19926;-59
2022/02/07 06:41:02;;;;;;;;;;;;;;;-144.99;93.33;52684.53;5012887;28;19933;-59
2022/02/07 06:43:29;;;;;;;;;;;;;;;-144.99;93.44;52717.16;5012854;28;19965;-59
2022/02/07 06:45:55;;;;;;;;;;;;;;;-144.99;93.33;52621.34;5012314;28;19930;-59
2022/02/07 06:48:23;;;;;;;;;;;;;;;-144.99;93.58;52647.84;5012762;28;19937;-60
2022/02/07 06:50:49;;;;;;;;;;;;;;;-144.99;95.44;52676.38;5012596;28;20425;-60
2022/02/07 06:53:16;;;;;;;;;;;;;;;-144.99;94.89;52660.09;5013067;28;20508;-59
2022/02/07 06:55:42;;;;;;;;;;;;;;;-144.99;95.27;52684.53;5012871;28;20386;-59
2022/02/07 06:58:09;;;;;;;;;;;;;;;-144.99;95.24;52676.38;5023799;28;19925;-59
2022/02/07 07:00:35;;;;;;;;;;;;;;;-144.99;94.67;52643.78;5015345;28;19929;-58
2022/02/07 07:03:01;;;;;;;;;;;;;;;-144.99;94.37;52676.38;5012609;28;20000;-58
2022/02/07 07:05:29;;;;;;;;;;;;;;;-144.99;93.76;52686.59;5012572;28;19972;-58
2022/02/07 07:07:56;;;;;;;;;;;;;;;-144.99;93.17;52643.78;5013147;28;20048;-59
2022/02/07 07:10:23;;;;;;;;;;;;;;;-144.99;92.79;52647.84;5010220;28;20020;-59
2022/02/07 07:12:57;;;;;;;;;;;;;;;-144.99;92.66;52643.78;5012751;28;19925;-59
2022/02/07 07:15:30;;;;;;;;;;;;;;;-144.99;91.87;52651.94;5012436;28;19948;-59
2022/02/07 07:17:56;;;;;;;;;;;;;;;-144.99;91.44;52668.22;5013090;28;20016;-59
2022/02/07 07:20:23;;;;;;;;;;;;;;;-144.99;90.69;52668.22;5012301;28;19926;-58
2022/02/07 07:22:50;;;;;;;;;;;;;;;-144.99;90.58;52647.84;5012275;28;19940;-59
2022/02/07 07:25:17;;;;;;;;;;;;;;;-144.99;90.23;52704.94;5012282;28;20298;-59
2022/02/07 07:27:56;;;;;;;;;;;;;;;-144.99;89.63;52668.22;5012280;28;19926;-59
2022/02/07 07:30:25;;;;;;;;;;;;;;;-144.99;88.52;52700.84;5012675;28;19925;-60
2022/02/07 07:32:51;;;;;;;;;;;;;;;-144.99;87.90;52651.94;5012189;28;19933;-59
2022/02/07 07:35:20;;;;;;;;;;;;;;;-144.99;86.33;52645.81;5012526;28;19937;-59
2022/02/07 07:37:47;;;;;;;;;;;;;;;-144.99;84.77;52639.69;5012820;28;19925;-58
2022/02/07 07:40:14;;;;;;;;;;;;;;;-144.99;83.29;52647.84;5011944;28;19925;-59
2022/02/07 07:42:44;;;;;;;;;;;;;;;-144.99;80.72;52635.63;5012113;28;19941;-59
2022/02/07 07:45:11;;;;;;;;;;;;;;;-144.99;79.49;52670.28;5010422;28;20008;-58
2022/02/07 07:47:41;;;;;;;;;;;;;;;-144.99;78.95;52656.00;5010923;28;19925;-58
2022/02/07 07:50:15;;;;;;;;;;;;;;;-144.99;77.53;52645.81;5010947;28;20306;-58
2022/02/07 07:52:59;;;;;;;;;;;;;;;-144.99;77.16;52643.78;5011207;28;20445;-58
2022/02/07 08:01:15;;;;;;;;;;;;;;;-144.99;76.11;52647.84;5011548;28;20330;-58
2022/02/07 08:01:26;;;;;;;;;;;;;;;-144.99;77.01;52643.78;4984959;28;19932;-59
2022/02/07 08:03:54;;;;;;;;;;;;;;;-144.99;77.56;52619.31;5010329;28;20478;-59
2022/02/07 08:06:24;;;;;;;;;;;;;;;-144.99;78.59;52639.69;5010640;28;19977;-58
2022/02/07 08:09:13;;;;;;;;;;;;;;;-144.99;79.73;52619.31;5010722;28;19932;-58
2022/02/07 08:11:40;;;;;;;;;;;;;;;-144.99;79.71;52635.63;5010579;28;19929;-58
2022/02/07 08:14:07;;;;;;;;;;;;;;;-144.99;78.57;52611.16;5010352;28;19930;-58
2022/02/07 08:16:34;;;;;;;;;;;;;;;-144.99;77.61;52615.25;5010083;28;19980;-58
2022/02/07 08:19:06;;;;;;;;;;;;;;;-144.99;75.41;52656.00;5010672;28;20310;-57
2022/02/07 08:21:32;;;;;;;;;;;;;;;-144.99;75.14;52651.94;5010210;28;19932;-57
2022/02/07 08:23:58;;;;;;;;;;;;;;;-144.99;73.45;52611.16;5010352;28;19926;-57
2022/02/07 08:26:25;;;;;;;;;;;;;;;-144.99;71.46;52603.00;5010602;28;19926;-58
2022/02/07 08:28:53;;;;;;;;;;;;;;;-144.99;69.94;52586.69;5010199;28;20382;-56
2022/02/07 08:31:22;;;;;;;;;;;;;;;-144.99;69.85;52611.16;5009585;28;20386;-58
2022/02/07 08:33:49;;;;;;;;;;;;;;;-144.99;68.13;52562.25;5009815;28;20295;-58
2022/02/07 08:36:16;;;;;;;;;;;;;;;-144.99;67.38;52627.47;5008400;28;19925;-58
2022/02/07 08:38:43;;;;;;;;;;;;;;;-144.99;66.78;52562.25;5006712;28;19984;-58
2022/02/07 08:41:09;;;;;;;;;;;;;;;-144.99;66.22;52590.78;5010446;28;19925;-58
2022/02/07 08:43:35;;;;;;;;;;;;;;;-144.99;65.68;52578.53;5010113;28;19926;-58
2022/02/07 08:46:03;;;;;;;;;;;;;;;-144.99;65.56;52623.38;5009286;28;20097;-58
2022/02/07 08:48:30;;;;;;;;;;;;;;;-144.99;65.53;52600.97;5009965;28;19926;-58
2022/02/07 08:50:57;;;;;;;;;;;;;;;-144.99;66.01;52598.94;5010168;28;20351;-58
2022/02/07 08:53:26;;;;;;;;;;;;;;;-144.99;66.49;52668.22;5009352;28;20008;-58
2022/02/07 08:55:53;;;;;;;;;;;;;;;-144.99;67.14;52633.59;5009279;28;20279;-58
2022/02/07 08:58:23;;;;;;;;;;;;;;;-144.99;67.89;52623.38;5010255;28;20443;-59
2022/02/07 09:00:58;;;;;;;;;;;;;;;-144.99;70.00;52627.47;5010125;28;19929;-60
2022/02/07 09:06:30;;;;;;;;;;;;;;;-144.99;73.47;52664.16;4993845;28;19932;-58
2022/02/07 09:09:08;;;;;;;;;;;;;;;-144.99;72.40;52627.47;5007267;28;20000;-58
2022/02/07 09:11:35;;;;;;;;;;;;;;;-144.99;70.84;52639.69;5011042;28;19925;-59
2022/02/07 09:14:10;;;;;;;;;;;;;;;-144.99;70.28;52623.38;5013508;28;19925;-59
2022/02/07 09:16:37;;;;;;;;;;;;;;;-144.99;67.95;52619.31;5013219;28;19929;-57
2022/02/07 09:19:05;;;;;;;;;;;;;;;-144.99;67.50;52656.00;5013902;28;19971;-58
2022/02/07 09:21:31;;;;;;;;;;;;;;;-144.99;66.66;52627.47;5013170;28;19925;-58
2022/02/07 09:23:58;;;;;;;;;;;;;;;-144.99;65.80;52584.66;5013448;28;19929;-58
2022/02/07 09:26:25;;;;;;;;;;;;;;;-144.99;64.53;52613.19;5014024;28;19926;-58
2022/02/07 09:28:52;;;;;;;;;;;;;;;-144.99;62.81;52603.00;5015102;28;20168;-59
2022/02/07 09:31:22;;;;;;;;;;;;;;;-144.99;61.33;52598.94;5014382;28;19983;-59
2022/02/07 09:33:48;;;;;;;;;;;;;;;-144.99;60.81;52582.63;5013230;28;19925;-58
2022/02/07 09:36:17;;;;;;;;;;;;;;;-144.99;60.80;52627.47;5013160;28;19925;-58
2022/02/07 09:38:44;;;;;;;;;;;;;;;-144.99;60.59;52637.66;5013834;28;20005;-58
2022/02/07 09:41:11;;;;;;;;;;;;;;;-144.99;61.00;52625.44;5013563;28;19949;-58
2022/02/07 09:43:43;;;;;;;;;;;;;;;-144.99;60.87;52600.97;5012896;28;20363;-58
2022/02/07 09:46:13;;;;;;;;;;;;;;;-144.99;61.23;52615.25;5013351;28;19931;-57
2022/02/07 09:48:40;;;;;;;;;;;;;;;-144.99;61.04;52615.25;5013243;28;19978;-58
2022/02/07 09:51:07;;;;;;;;;;;;;;;-144.99;61.56;52611.16;5014148;28;19925;-58
2022/02/07 09:53:36;;;;;;;;;;;;;;;-144.99;61.29;52594.84;5014077;28;19925;-58
2022/02/07 09:56:05;;;;;;;;;;;;;;;-144.99;61.30;52594.84;5014507;28;20012;-59
2022/02/07 09:58:37;;;;;;;;;;;;;;;-144.99;59.96;52594.84;5014777;28;19926;-58
2022/02/07 10:01:06;;;;;;;;;;;;;;;-144.99;57.79;52603.00;5013478;28;19968;-58
2022/02/07 10:03:47;;;;;;;;;;;;;;;-144.99;57.24;52562.25;5012825;28;19925;-58
2022/02/07 10:06:26;;;;;;;;;;;;;;;-144.99;58.52;52590.78;5012807;28;20024;-58
2022/02/07 10:09:03;;;;;;;;;;;;;;;-144.99;60.35;52598.94;5012877;28;20023;-58
2022/02/07 10:11:40;;;;;;;;;;;;;;;-144.99;61.97;52594.84;5013036;28;19926;-58
2022/02/07 10:14:14;;;;;;;;;;;;;;;-144.99;61.21;52578.53;5012922;28;19926;-58
2022/02/07 10:16:49;;;;;;;;;;;;;;;-144.99;61.40;52594.84;5013655;28;19929;-59
2022/02/07 10:19:29;;;;;;;;;;;;;;;-144.99;63.59;52639.69;5014190;28;19933;-58
2022/02/07 10:22:40;;;;;;;;;;;;;;;-144.99;64.78;52607.09;5011349;28;20408;-58
2022/02/07 10:39:13;;;;;;;;;;;;;;;-144.99;46.42;52366.56;5008403;28;19933;-59
2022/02/07 10:42:01;;;;;;;;;;;;;;;-144.99;44.62;52346.19;5008374;28;20367;-60
2022/02/07 10:44:36;;;;;;;;;;;;;;;-144.99;43.55;52354.34;5012007;28;19925;-59
2022/02/07 10:47:09;;;;;;;;;;;;;;;-144.99;42.07;52425.66;5012104;28;19926;-60
2022/02/07 10:49:35;;;;;;;;;;;;;;;-144.99;42.13;52311.53;5012176;28;20019;-59
2022/02/07 10:52:05;;;;;;;;;;;;;;;-144.99;41.02;52342.09;5026234;28;19925;-59
2022/02/07 10:54:32;;;;;;;;;;;;;;;-144.99;39.71;52270.78;5012461;28;19929;-60
2022/02/07 10:57:05;;;;;;;;;;;;;;;-144.99;39.23;52346.19;5012918;28;19969;-59
2022/02/07 10:59:31;;;;;;;;;;;;;;;-144.99;38.49;52285.03;5012213;28;19926;-59
2022/02/07 11:04:59;;;;;;;;;;;;;;;-144.99;37.46;52382.88;5011274;28;19929;-60
2022/02/07 11:07:30;;;;;;;;;;;;;;;-144.99;38.41;52366.56;5012528;28;20083;-60
2022/02/07 11:10:07;;;;;;;;;;;;;;;-144.99;39.17;52501.09;5011509;28;19980;-59
2022/02/07 11:13:05;;;;;;;;;;;;;;;-144.99;40.23;52513.31;5006936;28;19944;-59
2022/02/07 11:15:37;;;;;;;;;;;;;;;-144.99;42.04;52462.34;5010913;28;20479;-60
2022/02/07 11:18:15;;;;;;;;;;;;;;;-144.99;42.27;52474.59;5011871;28;20063;-59
2022/02/07 11:20:57;;;;;;;;;;;;;;;-144.99;42.10;52415.47;5010640;28;19960;-58
2022/02/07 11:23:33;;;;;;;;;;;;;;;-144.99;40.78;52380.84;5011720;28;19933;-59
2022/02/07 11:26:04;;;;;;;;;;;;;;;-144.99;39.36;52362.50;5011639;28;19935;-60
2022/02/07 11:28:42;;;;;;;;;;;;;;;-144.99;38.61;52448.09;5012327;28;19933;-60
2022/02/07 11:31:09;;;;;;;;;;;;;;;-144.99;39.23;52464.41;5012116;28;19938;-59
2022/02/07 11:33:51;;;;;;;;;;;;;;;-144.99;39.99;52470.50;5014224;28;20033;-59
2022/02/07 11:36:28;;;;;;;;;;;;;;;-144.99;40.78;52435.88;5013580;28;20374;-59
2022/02/07 11:38:59;;;;;;;;;;;;;;;-144.99;40.27;52372.69;5013303;28;19925;-59
2022/02/07 11:41:25;;;;;;;;;;;;;;;-144.99;38.25;52333.94;5011269;28;19932;-59
2022/02/07 11:43:54;;;;;;;;;;;;;;;-144.99;38.52;52380.84;5012004;28;19960;-60
2022/02/07 11:46:21;;;;;;;;;;;;;;;-144.99;37.57;52352.28;5010803;28;19948;-60
2022/02/07 11:48:48;;;;;;;;;;;;;;;-144.99;37.27;52350.25;5011178;28;20347;-58
2022/02/07 11:51:18;;;;;;;;;;;;;;;-144.99;38.09;52366.56;5010814;28;20021;-60
2022/02/07 11:53:47;;;;;;;;;;;;;;;-144.99;37.65;52321.72;5010657;28;19984;-60
2022/02/07 11:56:20;;;;;;;;;;;;;;;-144.99;37.36;52338.03;5011168;28;19952;-60
2022/02/07 11:58:52;;;;;;;;;;;;;;;-144.99;36.74;52321.72;5010912;28;20378;-59
2022/02/07 12:01:43;;;;;;;;;;;;;;;-144.99;36.46;52317.66;5010591;28;19926;-61
2022/02/07 12:04:24;;;;;;;;;;;;;;;-144.99;35.92;52315.59;5011334;28;19933;-62
2022/02/07 12:07:05;;;;;;;;;;;;;;;-144.99;36.65;52317.66;5011132;28;19969;-60
2022/02/07 12:09:32;;;;;;;;;;;;;;;-144.99;36.08;52305.41;5010942;28;20395;-62
2022/02/07 12:11:58;;;;;;;;;;;;;;;-144.99;36.31;52325.81;5011117;28;19948;-59
2022/02/07 12:14:32;;;;;;;;;;;;;;;-144.99;36.19;52276.88;5010606;28;19925;-61
2022/02/07 12:16:58;;;;;;;;;;;;;;;-144.99;36.17;52301.34;5010850;28;20361;-61
2022/02/07 12:19:36;;;;;;;;;;;;;;;-144.99;35.85;52305.41;5011492;28;19937;-61
2022/02/07 12:22:12;;;;;;;;;;;;;;;-144.99;36.29;52336.00;5010647;28;19925;-61
2022/02/07 12:24:48;;;;;;;;;;;;;;;-144.99;35.89;52317.66;5010215;28;19932;-60
2022/02/07 12:27:15;;;;;;;;;;;;;;;-144.99;35.47;52280.97;5010398;28;20366;-60
2022/02/07 12:29:59;;;;;;;;;;;;;;;-144.99;35.78;52307.47;5010209;28;19936;-61
2022/02/07 12:32:26;;;;;;;;;;;;;;;-144.99;36.92;52452.16;5010660;28;20199;-60
2022/02/07 12:34:55;;;;;;;;;;;;;;;-144.99;38.75;52574.47;5009434;28;19929;-60
2022/02/07 12:37:23;;;;;;;;;;;;;;;-144.99;40.98;52586.69;5009829;28;20032;-60
2022/02/07 12:39:50;;;;;;;;;;;;;;;-144.99;43.09;52578.53;5010239;28;19929;-60
2022/02/07 12:42:17;;;;;;;;;;;;;;;-144.99;43.59;52566.31;5009997;28;20406;-60
2022/02/07 12:44:43;;;;;;;;;;;;;;;-144.99;44.58;52603.00;5009798;28;19926;-60
2022/02/07 12:47:13;;;;;;;;;;;;;;;-144.99;46.70;52664.16;5009059;28;20391;-58
2022/02/07 12:49:46;;;;;;;;;;;;;;;-144.99;50.13;52688.63;5010726;28;19930;-59
2022/02/07 12:52:14;;;;;;;;;;;;;;;-144.99;55.23;52692.69;5010561;28;19931;-60
2022/02/07 12:54:40;;;;;;;;;;;;;;;-144.99;61.37;52704.94;5010079;28;19933;-59
2022/02/07 12:57:07;;;;;;;;;;;;;;;-144.99;65.93;52719.19;5010195;28;19926;-58
2022/02/07 12:59:34;;;;;;;;;;;;;;;-144.99;67.70;52717.16;5010175;28;20429;-58
2022/02/07 13:02:01;;;;;;;;;;;;;;;-144.99;68.50;52541.84;5009855;28;19952;-58
2022/02/07 13:04:27;;;;;;;;;;;;;;;-144.99;63.18;52501.09;5009941;28;19932;-57
2022/02/07 13:06:54;;;;;;;;;;;;;;;-144.99;54.81;52450.13;5009681;28;20006;-58
2022/02/07 13:09:24;;;;;;;;;;;;;;;-144.99;49.70;52452.16;5007437;28;19951;-58
2022/02/07 13:12:11;;;;;;;;;;;;;;;-144.99;47.55;52541.84;5009831;28;20004;-58
2022/02/07 13:14:40;;;;;;;;;;;;;;;-144.99;47.05;52533.69;5009552;28;20295;-59
2022/02/07 13:17:08;;;;;;;;;;;;;;;-144.99;47.08;52419.56;5009905;28;20322;-58
2022/02/07 13:19:38;;;;;;;;;;;;;;;-144.99;46.37;52521.47;5009559;28;19979;-59
2022/02/07 13:22:05;;;;;;;;;;;;;;;-144.99;45.05;52415.47;5009710;28;19925;-59
2022/02/07 13:24:34;;;;;;;;;;;;;;;-144.99;44.71;52537.78;5009524;28;20632;-59
2022/02/07 13:27:02;;;;;;;;;;;;;;;-144.99;45.48;52393.06;5009655;28;20295;-59
2022/02/07 13:29:30;;;;;;;;;;;;;;;-144.99;45.22;52423.63;5010270;28;19933;-59
2022/02/07 13:31:57;;;;;;;;;;;;;;;-144.99;43.70;52423.63;5009755;28;19932;-59
2022/02/07 13:34:25;;;;;;;;;;;;;;;-144.99;42.86;52415.47;5009471;28;19960;-59
2022/02/07 13:36:52;;;;;;;;;;;;;;;-144.99;42.69;52409.38;5009441;28;20430;-59
2022/02/07 13:39:20;;;;;;;;;;;;;;;-144.99;42.08;52362.50;5009381;28;19926;-58
2022/02/07 13:42:01;;;;;;;;;;;;;;;-144.99;41.13;52354.34;5009462;28;19933;-59
2022/02/07 13:44:29;;;;;;;;;;;;;;;-144.99;40.27;52391.03;5009328;28;19926;-59
2022/02/07 13:47:00;;;;;;;;;;;;;;;-144.99;40.05;52413.44;5008848;28;20019;-59
2022/02/07 13:49:26;;;;;;;;;;;;;;;-144.99;39.67;52382.88;5008139;28;19945;-59
2022/02/07 13:51:53;;;;;;;;;;;;;;;-144.99;39.48;52333.94;5008739;28;20428;-58
2022/02/07 13:54:27;;;;;;;;;;;;;;;-144.99;39.63;52419.56;5009036;28;19929;-59
2022/02/07 13:56:57;;;;;;;;;;;;;;;-144.99;39.03;52391.03;5009285;28;19979;-59
2022/02/07 13:59:24;;;;;;;;;;;;;;;-144.99;38.66;52366.56;5013247;28;19926;-59